Time;durP1;ratioP1;P1;durP2;ratioP2;P2;SDS_P1;SDS_P2;PMS_P1;PMS_P2;Temp;Humidity;BMP_temperature;BMP_pressure;BME280_temperature;BME280_humidity;BME280_pressure;Samples;Min_cycle;Max_cycle;Signal;HPM_P1;HPM_P2
2023/07/13 00:02:47;;;;;;;2.67;2.17;;;;;;;25.32;45.44;98671.13;7002175;28;20208;-83
2023/07/13 00:06:09;;;;;;;4.13;2.17;;;;;;;24.74;47.17;98642.31;6998912;28;20211;-82
2023/07/13 00:09:30;;;;;;;2.87;2.13;;;;;;;24.77;48.01;98683.88;7000169;28;20315;-82
2023/07/13 00:12:54;;;;;;;3.77;2.20;;;;;;;24.34;48.87;98627.19;7000410;28;20323;-83
2023/07/13 00:16:18;;;;;;;6.80;2.20;;;;;;;24.53;48.68;98674.84;6999292;28;20264;-82
2023/07/13 00:19:40;;;;;;;3.83;2.43;;;;;;;24.21;50.07;98677.53;7000187;28;20230;-83
2023/07/13 00:23:02;;;;;;;4.07;2.47;;;;;;;23.94;50.76;98657.19;7000366;28;20198;-83
2023/07/13 00:26:23;;;;;;;2.30;2.10;;;;;;;24.20;49.70;98669.53;7000198;28;20215;-83
2023/07/13 00:29:45;;;;;;;3.60;2.30;;;;;;;23.33;51.91;98675.50;7000179;28;20367;-83
2023/07/13 00:33:08;;;;;;;2.37;2.10;;;;;;;23.84;50.85;98680.16;6999974;28;20232;-83
2023/07/13 00:36:30;;;;;;;3.30;2.10;;;;;;;23.99;49.40;98679.19;6999621;28;20210;-83
2023/07/13 00:39:51;;;;;;;2.37;2.10;;;;;;;23.91;49.77;98696.38;7000169;28;20223;-83
2023/07/13 00:43:15;;;;;;;4.47;2.33;;;;;;;23.82;50.27;98707.16;6999871;28;20264;-83
2023/07/13 00:46:36;;;;;;;2.37;1.80;;;;;;;23.43;49.93;98678.94;7002097;28;20263;-82
2023/07/13 00:49:59;;;;;;;3.40;1.90;;;;;;;23.74;48.72;98691.31;7006980;28;20387;-82
2023/07/13 00:53:22;;;;;;;2.63;2.00;;;;;;;23.76;46.15;98691.81;7008341;28;20224;-82
2023/07/13 00:56:45;;;;;;;3.53;1.80;;;;;;;24.30;45.59;98699.72;7007428;28;20266;-82
2023/07/13 01:00:08;;;;;;;4.87;1.90;;;;;;;24.54;44.97;98704.06;7003222;28;20318;-82
2023/07/13 01:03:30;;;;;;;2.43;1.60;;;;;;;24.39;44.47;98706.22;6998947;28;20585;-82
2023/07/13 01:06:53;;;;;;;3.43;2.13;;;;;;;24.29;45.53;98714.59;6998396;28;20248;-82
2023/07/13 01:10:15;;;;;;;2.23;1.97;;;;;;;24.34;45.87;98700.75;6999576;28;20224;-83
2023/07/13 01:13:36;;;;;;;2.80;2.03;;;;;;;24.55;45.86;98697.41;7000786;28;20718;-83
2023/07/13 01:17:00;;;;;;;4.00;2.20;;;;;;;23.53;47.81;98692.63;7000121;28;20208;-83
2023/07/13 01:20:21;;;;;;;3.33;2.00;;;;;;;24.04;47.06;98704.75;7001303;28;20232;-83
2023/07/13 01:23:44;;;;;;;2.83;1.97;;;;;;;23.79;47.72;98699.47;7001205;28;20290;-83
2023/07/13 01:27:07;;;;;;;2.20;2.00;;;;;;;24.16;47.00;98699.63;6999933;28;20310;-83
2023/07/13 01:30:29;;;;;;;5.80;1.83;;;;;;;23.52;47.97;98709.41;6983065;28;20290;-83
2023/07/13 01:33:50;;;;;;;2.87;2.13;;;;;;;23.71;47.61;98715.84;6974256;28;20224;-83
2023/07/13 01:37:12;;;;;;;3.50;1.77;;;;;;;23.91;47.02;98699.94;6973745;28;20971;-83
2023/07/13 01:40:37;;;;;;;2.43;1.90;;;;;;;23.66;46.66;98702.13;6974509;28;20207;-83
2023/07/13 01:43:59;;;;;;;3.53;1.83;;;;;;;24.01;46.13;98705.31;6975674;28;20206;-83
2023/07/13 01:47:20;;;;;;;16.00;2.07;;;;;;;23.92;45.84;98706.25;6976816;28;20789;-83
2023/07/13 01:50:42;;;;;;;4.30;2.03;;;;;;;23.28;48.13;98700.28;6988861;28;20227;-84
2023/07/13 01:54:03;;;;;;;5.67;2.00;;;;;;;23.32;48.16;98690.38;6979963;28;20312;-83
2023/07/13 01:57:26;;;;;;;5.47;2.20;;;;;;;23.01;49.94;98717.28;6972385;28;20312;-83
2023/07/13 02:00:49;;;;;;;3.90;2.30;;;;;;;23.10;49.64;98725.72;6972723;28;20810;-82
2023/07/13 02:04:11;;;;;;;3.57;2.03;;;;;;;23.17;49.07;98721.59;6972085;28;20208;-83
2023/07/13 02:07:32;;;;;;;3.03;2.30;;;;;;;22.88;49.75;98715.19;6970883;28;20237;-82
2023/07/13 02:10:54;;;;;;;3.13;1.80;;;;;;;22.57;49.68;98699.19;6972668;28;20255;-83
2023/07/13 02:14:16;;;;;;;4.83;1.83;;;;;;;22.91;49.93;98724.78;6971850;28;20798;-83
2023/07/13 02:17:38;;;;;;;4.50;2.40;;;;;;;22.88;49.83;98719.84;6971350;28;20287;-83
2023/07/13 02:21:00;;;;;;;3.30;1.80;;;;;;;22.66;50.28;98719.47;6972308;28;20737;-83
2023/07/13 02:24:21;;;;;;;3.63;2.10;;;;;;;22.42;51.21;98732.22;6971853;28;20204;-82
2023/07/13 02:27:43;;;;;;;2.80;2.10;;;;;;;22.47;50.94;98735.78;6971514;28;20599;-82
2023/07/13 02:31:13;;;;;;;2.87;1.97;;;;;;;22.17;51.06;98730.41;6976031;28;20261;-83
2023/07/13 02:34:35;;;;;;;5.03;2.20;;;;;;;22.02;52.04;98737.88;6999548;28;20306;-82
2023/07/13 02:37:56;;;;;;;4.20;2.27;;;;;;;21.80;52.95;98731.91;7000606;28;20230;-83
2023/07/13 02:41:18;;;;;;;4.23;2.10;;;;;;;21.55;52.49;98738.25;7005151;28;20198;-82
2023/07/13 02:44:42;;;;;;;3.87;2.47;;;;;;;21.86;50.90;98715.16;7004764;28;20201;-82
2023/07/13 02:48:06;;;;;;;3.00;2.20;;;;;;;21.98;51.03;98732.16;7003863;28;20315;-83
2023/07/13 02:51:27;;;;;;;4.10;2.10;;;;;;;22.23;50.37;98744.94;7004721;28;20212;-82
2023/07/13 02:54:49;;;;;;;2.60;2.10;;;;;;;22.33;49.59;98739.41;7005038;28;20392;-82
2023/07/13 02:58:10;;;;;;;5.90;2.17;;;;;;;22.20;49.64;98749.06;7004271;28;20233;-82
2023/07/13 03:01:35;;;;;;;4.40;2.30;;;;;;;21.50;51.38;98699.03;7004675;28;20212;-83
2023/07/13 03:04:58;;;;;;;3.67;2.33;;;;;;;21.45;52.14;98754.75;7004564;28;20227;-83
2023/07/13 03:08:19;;;;;;;3.97;2.10;;;;;;;21.36;52.11;98720.72;7004013;28;20356;-83
2023/07/13 03:11:40;;;;;;;2.97;2.23;;;;;;;21.33;52.19;98759.69;7005126;28;20658;-83
2023/07/13 03:15:02;;;;;;;3.23;2.37;;;;;;;21.00;53.89;98764.06;7004864;28;20312;-83
2023/07/13 03:18:26;;;;;;;2.33;2.00;;;;;;;20.23;54.53;98672.94;7003873;28;20226;-82
2023/07/13 03:21:49;;;;;;;2.53;2.20;;;;;;;21.16;53.92;98752.00;7003483;28;20295;-83
2023/07/13 03:25:11;;;;;;;3.80;2.10;;;;;;;21.17;53.33;98765.44;7004597;28;20283;-83
2023/07/13 03:28:33;;;;;;;2.90;2.27;;;;;;;21.05;52.88;98766.81;7004358;28;20230;-83
2023/07/13 03:31:54;;;;;;;3.53;2.20;;;;;;;21.35;52.43;98752.00;6981146;28;20838;-82
2023/07/13 03:35:16;;;;;;;2.63;2.00;;;;;;;21.51;52.10;98772.84;6976835;28;20365;-82
2023/07/13 03:38:39;;;;;;;3.23;2.20;;;;;;;21.17;53.22;98774.50;6976115;28;20260;-83
2023/07/13 03:42:00;;;;;;;2.10;1.90;;;;;;;21.13;53.29;98773.38;6977892;28;20299;-83
2023/07/13 03:45:22;;;;;;;2.23;2.00;;;;;;;21.28;52.76;98789.84;6977766;28;20347;-83
2023/07/13 03:48:45;;;;;;;2.67;2.10;;;;;;;21.35;52.29;98726.47;6977384;28;20372;-82
2023/07/13 03:52:07;;;;;;;4.30;2.53;;;;;;;21.53;52.57;98791.78;6979529;28;20809;-83
2023/07/13 03:55:30;;;;;;;5.33;2.50;;;;;;;21.49;52.23;98736.59;6982457;28;20248;-82
2023/07/13 03:58:52;;;;;;;2.33;2.03;;;;;;;21.88;50.83;98751.38;6976784;28;20297;-83
2023/07/13 04:02:13;;;;;;;2.93;2.10;;;;;;;22.08;50.07;98800.72;6977951;28;20214;-82
2023/07/13 04:05:36;;;;;;;6.90;2.20;;;;;;;22.00;50.00;98797.72;7001724;28;20298;-80
2023/07/13 04:08:59;;;;;;;3.50;1.90;;;;;;;21.74;51.99;98801.66;7007689;28;20234;-81
2023/07/13 04:12:22;;;;;;;7.60;2.53;;;;;;;21.90;51.74;98789.53;7005379;28;20701;-81
2023/07/13 04:15:44;;;;;;;2.40;2.20;;;;;;;22.09;50.59;98787.84;6999228;28;20237;-81
2023/07/13 04:19:05;;;;;;;2.33;1.93;;;;;;;22.29;49.78;98774.84;7001332;28;20230;-80
2023/07/13 04:22:27;;;;;;;5.93;2.33;;;;;;;22.16;50.60;98799.34;7001335;28;20251;-81
2023/07/13 04:25:52;;;;;;;4.20;2.37;;;;;;;22.47;49.36;98798.16;6996623;28;20637;-79
2023/07/13 04:29:15;;;;;;;4.50;2.27;;;;;;;22.49;49.90;98799.50;6983867;28;20236;-79
2023/07/13 04:32:36;;;;;;;2.47;2.13;;;;;;;22.49;49.58;98799.50;6998305;28;20244;-79
2023/07/13 04:35:59;;;;;;;3.67;2.20;;;;;;;22.70;49.02;98814.81;6999090;28;20238;-79
2023/07/13 04:39:20;;;;;;;2.40;1.90;;;;;;;22.83;48.66;98805.94;6999864;28;20233;-80
2023/07/13 04:42:42;;;;;;;4.20;1.90;;;;;;;22.60;48.93;98801.13;6999965;28;20667;-79
2023/07/13 04:46:06;;;;;;;6.77;2.30;;;;;;;22.44;50.28;98813.31;6992165;28;20204;-80
2023/07/13 04:49:27;;;;;;;2.60;1.97;;;;;;;22.75;49.91;98811.22;7003258;28;20231;-84
2023/07/13 04:52:49;;;;;;;3.67;2.10;;;;;;;22.91;48.70;98808.13;6998678;28;20209;-78
2023/07/13 04:56:11;;;;;;;2.70;2.03;;;;;;;23.06;48.47;98810.75;6994580;28;20274;-80
2023/07/13 04:59:32;;;;;;;3.50;2.50;;;;;;;22.85;48.97;98805.66;7005039;28;20368;-79
2023/07/13 05:02:57;;;;;;;3.87;1.93;;;;;;;22.73;49.34;98800.50;7005282;28;20276;-79
2023/07/13 05:06:18;;;;;;;3.40;2.30;;;;;;;23.01;48.92;98819.03;7002919;28;20674;-79
2023/07/13 05:09:40;;;;;;;2.67;2.10;;;;;;;23.20;48.74;98819.22;7018957;28;20248;-79
2023/07/13 05:13:01;;;;;;;6.00;2.37;;;;;;;23.33;48.94;98813.91;7001428;28;20398;-78
2023/07/13 05:16:24;;;;;;;4.97;2.10;;;;;;;23.51;48.36;98823.38;6995361;28;20211;-79
2023/07/13 05:19:47;;;;;;;3.50;2.40;;;;;;;23.56;47.97;98817.84;6996174;28;20288;-78
2023/07/13 05:23:08;;;;;;;4.13;2.20;;;;;;;23.39;48.43;98812.75;6996393;28;20343;-79
2023/07/13 05:26:30;;;;;;;3.40;2.10;;;;;;;23.80;47.04;98819.56;6999462;28;20204;-79
2023/07/13 05:29:51;;;;;;;4.23;2.17;;;;;;;23.73;47.38;98810.78;6993820;28;20395;-78
2023/07/13 05:33:13;;;;;;;2.20;2.00;;;;;;;23.65;48.25;98789.41;6970335;28;20265;-79
2023/07/13 05:36:36;;;;;;;2.60;2.23;;;;;;;24.04;48.03;98814.94;6968898;28;20250;-79
2023/07/13 05:39:57;;;;;;;2.63;1.80;;;;;;;24.40;46.75;98818.09;6971916;28;20286;-81
2023/07/13 05:43:19;;;;;;;5.93;2.20;;;;;;;24.53;46.38;98818.22;6972488;28;20692;-82
2023/07/13 05:46:40;;;;;;;2.93;2.20;;;;;;;24.89;45.69;98819.41;6971079;28;20344;-82
2023/07/13 05:50:02;;;;;;;4.07;2.37;;;;;;;24.70;45.46;98802.03;6970697;28;20253;-82
2023/07/13 05:53:25;;;;;;;2.13;1.90;;;;;;;24.91;45.68;98836.50;6996084;28;20240;-83
2023/07/13 05:56:46;;;;;;;3.47;2.37;;;;;;;24.23;46.60;98798.44;6998865;28;20280;-83
2023/07/13 06:00:09;;;;;;;5.00;2.13;;;;;;;24.15;47.02;98833.00;6999363;28;20305;-82
2023/07/13 06:03:31;;;;;;;2.90;2.30;;;;;;;24.39;46.13;98803.50;7000857;28;20351;-80
2023/07/13 06:06:53;;;;;;;2.20;1.97;;;;;;;24.44;46.65;98833.78;6998902;28;20227;-80
2023/07/13 06:10:15;;;;;;;3.10;2.10;;;;;;;24.86;45.54;98835.75;7000555;28;20220;-80
2023/07/13 06:13:37;;;;;;;2.27;2.07;;;;;;;25.15;44.34;98831.75;6999863;28;20226;-79
2023/07/13 06:16:59;;;;;;;3.30;2.20;;;;;;;25.00;44.93;98845.75;6996058;28;20209;-80
2023/07/13 06:20:20;;;;;;;3.33;2.33;;;;;;;25.30;44.48;98836.25;7001987;28;20233;-80
2023/07/13 06:23:42;;;;;;;4.23;2.20;;;;;;;25.01;44.22;98852.91;7002654;28;20251;-83
2023/07/13 06:27:06;;;;;;;4.53;2.10;;;;;;;25.72;42.89;98847.97;6979999;28;20314;-81
2023/07/13 06:30:28;;;;;;;5.30;2.27;;;;;;;24.85;43.75;98837.69;6998514;28;20250;-81
2023/07/13 06:33:49;;;;;;;3.37;2.30;;;;;;;25.01;42.99;98857.63;6988019;28;20314;-81
2023/07/13 06:37:11;;;;;;;3.67;2.10;;;;;;;26.19;39.92;98797.16;6988996;28;20212;-82
2023/07/13 06:40:32;;;;;;;4.73;2.47;;;;;;;26.52;38.96;98867.81;7033245;28;20306;-82
2023/07/13 06:43:55;;;;;;;4.83;2.23;;;;;;;26.61;39.28;98868.78;7033477;28;21040;-82
2023/07/13 06:47:17;;;;;;;4.97;2.40;;;;;;;26.23;38.91;98881.91;7033099;28;20769;-81
2023/07/13 06:50:38;;;;;;;4.37;1.83;;;;;;;26.14;37.55;98883.72;7033628;28;20292;-82
2023/07/13 06:54:00;;;;;;;3.63;1.97;;;;;;;25.93;37.02;98881.63;7034070;28;20293;-82
2023/07/13 06:57:22;;;;;;;4.30;2.30;;;;;;;26.88;37.00;98883.41;7032966;28;20293;-82
2023/07/13 07:00:47;;;;;;;3.67;1.87;;;;;;;28.27;33.10;98869.31;6987496;28;20194;-83
2023/07/13 07:04:08;;;;;;;1.93;1.73;;;;;;;28.78;31.90;98850.97;6982905;28;20203;-82
2023/07/13 07:07:30;;;;;;;7.97;2.23;;;;;;;28.06;32.68;98882.91;6999844;28;20215;-83
2023/07/13 07:10:53;;;;;;;4.70;2.03;;;;;;;28.10;33.11;98888.63;7002729;28;20232;-83
2023/07/13 07:14:15;;;;;;;4.73;1.90;;;;;;;28.96;31.70;98880.44;6977169;28;20358;-81
2023/07/13 07:17:38;;;;;;;4.37;2.20;;;;;;;28.27;31.51;98891.50;6985166;28;20271;-82
2023/07/13 07:20:59;;;;;;;3.67;1.70;;;;;;;27.18;32.35;98830.19;7008350;28;20209;-82
2023/07/13 07:24:21;;;;;;;5.23;2.00;;;;;;;28.62;31.18;98849.78;7002036;28;20212;-83
2023/07/13 07:27:42;;;;;;;5.20;1.70;;;;;;;28.58;30.57;98886.78;7002151;28;20708;-82
2023/07/13 07:31:04;;;;;;;4.30;1.77;;;;;;;28.59;30.46;98877.31;7003881;28;20286;-82
2023/07/13 07:34:27;;;;;;;2.60;1.70;;;;;;;28.53;30.07;98889.72;7000730;28;20649;-83
2023/07/13 07:37:48;;;;;;;3.53;1.70;;;;;;;28.07;30.28;98883.72;7000679;28;20624;-82
2023/07/13 07:41:10;;;;;;;2.73;1.73;;;;;;;28.50;30.70;98851.53;7003086;28;20274;-82
2023/07/13 07:44:32;;;;;;;5.13;1.63;;;;;;;29.17;29.99;98880.66;6980858;28;20260;-82
2023/07/13 07:47:54;;;;;;;3.43;1.80;;;;;;;29.59;28.80;98889.06;7001898;28;20412;-82
2023/07/13 07:51:17;;;;;;;3.07;1.70;;;;;;;28.38;28.48;98870.72;7003082;28;20202;-83
2023/07/13 07:54:39;;;;;;;2.90;1.47;;;;;;;28.35;28.17;98887.94;7003622;28;20237;-82
2023/07/13 07:58:00;;;;;;;3.17;1.67;;;;;;;28.99;28.91;98873.41;7004482;28;20222;-82
2023/07/13 08:01:22;;;;;;;3.00;1.63;;;;;;;29.18;26.52;98885.09;7001035;28;20711;-82
2023/07/13 08:04:43;;;;;;;2.60;1.40;;;;;;;29.40;26.74;98882.97;7003074;28;20212;-82
2023/07/13 08:08:06;;;;;;;3.93;1.90;;;;;;;28.98;27.71;98888.44;7003025;28;20284;-82
2023/07/13 08:11:28;;;;;;;4.67;1.57;;;;;;;29.18;27.73;98885.88;7003952;28;20273;-82
2023/07/13 08:14:53;;;;;;;3.73;1.57;;;;;;;28.81;25.77;98891.13;7004302;28;20229;-82
2023/07/13 08:18:15;;;;;;;2.07;1.40;;;;;;;29.36;25.62;98886.75;6996982;28;20237;-83
2023/07/13 08:21:36;;;;;;;2.77;1.60;;;;;;;29.43;26.51;98871.22;6999594;28;20203;-82
2023/07/13 08:24:59;;;;;;;3.07;1.93;;;;;;;30.16;25.37;98896.09;7009513;28;20208;-83
2023/07/13 08:28:22;;;;;;;1.70;1.40;;;;;;;29.71;25.25;98882.88;7017766;28;20223;-83
2023/07/13 08:31:43;;;;;;;3.40;1.90;;;;;;;30.76;24.89;98902.31;7007495;28;20235;-83
2023/07/13 08:35:06;;;;;;;3.77;2.03;;;;;;;28.89;26.52;98780.13;6996682;28;20312;-83
2023/07/13 08:38:28;;;;;;;2.13;1.40;;;;;;;30.39;24.89;98894.75;6974278;28;20227;-82
2023/07/13 08:41:54;;;;;;;2.77;1.77;;;;;;;30.70;23.99;98891.69;6998350;28;20225;-84
2023/07/13 08:45:21;;;;;;;5.43;1.90;;;;;;;30.15;25.85;98896.41;6999494;28;20279;-84
2023/07/13 08:48:45;;;;;;;5.20;1.90;;;;;;;30.29;25.45;98899.81;6998486;28;20313;-84
2023/07/13 08:52:12;;;;;;;4.20;1.80;;;;;;;29.77;25.30;98901.03;6999030;28;20262;-83
2023/07/13 08:55:37;;;;;;;3.43;1.60;;;;;;;30.31;24.90;98878.88;6992753;28;20229;-86
2023/07/13 08:59:05;;;;;;;2.03;1.60;;;;;;;29.81;24.94;98891.69;6998770;28;20223;-87
2023/07/13 09:02:29;;;;;;;5.53;1.93;;;;;;;30.20;24.35;98899.84;6998036;28;20205;-82
2023/07/13 09:05:55;;;;;;;2.33;1.87;;;;;;;30.35;24.97;98893.75;6998739;28;20608;-85
2023/07/13 09:09:23;;;;;;;3.97;1.83;;;;;;;31.61;23.73;98881.50;6999203;28;20225;-86
2023/07/13 09:12:53;;;;;;;3.70;1.60;;;;;;;31.94;23.77;98901.91;6999189;28;20249;-82
2023/07/13 09:16:16;;;;;;;2.47;1.50;;;;;;;31.57;23.19;98884.16;6998493;28;20217;-83
2023/07/13 09:19:38;;;;;;;3.63;1.67;;;;;;;31.84;23.62;98905.94;6999120;28;20278;-82
2023/07/13 09:23:00;;;;;;;2.23;1.40;;;;;;;31.83;22.99;98897.94;6999621;28;20217;-82
2023/07/13 09:26:24;;;;;;;4.10;1.97;;;;;;;31.79;23.31;98899.75;6998708;28;20201;-83
2023/07/13 09:29:49;;;;;;;4.70;1.80;;;;;;;32.05;22.54;98903.13;6999050;28;20226;-82
2023/07/13 09:33:12;;;;;;;1.90;1.23;;;;;;;31.88;23.60;98856.69;6999693;28;20207;-82
2023/07/13 09:36:35;;;;;;;2.73;1.60;;;;;;;31.15;23.47;98901.16;7001101;28;20228;-82
2023/07/13 09:39:57;;;;;;;5.73;1.60;;;;;;;31.87;23.39;98898.88;6994236;28;20239;-81
2023/07/13 09:43:20;;;;;;;4.30;1.87;;;;;;;31.92;22.37;98877.16;6999345;28;20664;-82
2023/07/13 09:46:46;;;;;;;4.30;1.83;;;;;;;31.66;23.43;98893.25;6991702;28;20300;-82
2023/07/13 09:50:16;;;;;;;3.00;1.57;;;;;;;31.69;23.29;98891.78;7008064;28;20248;-85
2023/07/13 09:53:37;;;;;;;4.30;1.23;;;;;;;31.89;22.59;98844.38;6996151;28;20205;-83
2023/07/13 09:57:00;;;;;;;3.50;1.83;;;;;;;31.46;22.98;98887.69;7002138;28;20698;-83
2023/07/13 10:00:24;;;;;;;3.40;1.50;;;;;;;31.18;22.96;98889.31;6990064;28;20238;-83
2023/07/13 10:03:54;;;;;;;4.33;1.70;;;;;;;31.31;23.01;98894.66;7005977;28;20206;-82
2023/07/13 10:07:18;;;;;;;1.87;1.50;;;;;;;31.44;23.17;98887.22;6976022;28;20697;-82
2023/07/13 10:10:39;;;;;;;3.37;1.77;;;;;;;31.47;23.68;98892.94;6988494;28;20247;-83
2023/07/13 10:14:03;;;;;;;2.50;1.47;;;;;;;30.51;24.17;98869.81;7010210;28;20293;-82
2023/07/13 10:17:30;;;;;;;5.83;1.77;;;;;;;31.33;23.06;98884.03;7014658;28;20205;-82
2023/07/13 10:20:55;;;;;;;3.17;1.63;;;;;;;31.81;23.15;98892.69;7016718;28;20191;-82
2023/07/13 10:24:20;;;;;;;3.93;1.90;;;;;;;31.17;24.21;98879.31;7018706;28;20249;-83
2023/07/13 10:27:41;;;;;;;6.70;2.13;;;;;;;31.40;23.86;98880.69;7010181;28;20355;-83
2023/07/13 10:31:04;;;;;;;1.73;1.60;;;;;;;31.30;23.76;98900.59;7001817;28;20235;-84
2023/07/13 10:34:26;;;;;;;4.07;1.97;;;;;;;31.07;23.20;98897.25;7003043;28;20229;-81
2023/07/13 10:37:51;;;;;;;3.97;2.00;;;;;;;31.33;23.64;98888.75;7005041;28;20321;-82
2023/07/13 10:41:16;;;;;;;3.87;1.57;;;;;;;31.40;22.79;98891.81;7003632;28;20350;-85
2023/07/13 10:44:39;;;;;;;2.93;1.43;;;;;;;31.80;22.21;98826.09;7003757;28;20215;-83
2023/07/13 10:48:01;;;;;;;2.40;1.70;;;;;;;31.61;23.00;98822.97;6986010;28;20233;-85
2023/07/13 10:51:23;;;;;;;3.63;1.80;;;;;;;31.93;23.08;98873.22;7007329;28;20239;-82
2023/07/13 10:54:47;;;;;;;3.20;1.43;;;;;;;32.88;21.90;98868.22;7008023;28;20252;-82
2023/07/13 10:58:20;;;;;;;4.60;2.10;;;;;;;32.83;22.39;98872.06;7009970;28;20240;-82
2023/07/13 11:01:51;;;;;;;4.97;1.77;;;;;;;32.21;23.37;98871.47;7007729;28;20567;-82
2023/07/13 11:05:27;;;;;;;4.03;1.70;;;;;;;31.13;23.50;98854.13;6987027;28;20342;-82
2023/07/13 11:08:54;;;;;;;5.33;1.80;;;;;;;31.92;23.43;98860.44;6980717;28;20243;-82
2023/07/13 11:12:44;;;;;;;4.27;1.77;;;;;;;31.38;24.03;98858.72;6982339;28;20693;-82
2023/07/13 11:16:22;;;;;;;2.17;1.73;;;;;;;32.24;23.02;98868.00;6985780;28;20311;-82
2023/07/13 11:19:43;;;;;;;3.63;2.40;;;;;;;31.19;23.83;98852.00;7009058;28;20458;-81
2023/07/13 11:23:19;;;;;;;3.33;1.50;;;;;;;30.83;24.31;98863.63;7007368;28;20293;-81
2023/07/13 11:26:43;;;;;;;5.07;1.77;;;;;;;31.64;23.87;98845.41;7020059;28;20220;-82
2023/07/13 11:30:24;;;;;;;4.80;1.70;;;;;;;32.37;23.24;98858.47;7008898;28;20295;-82
2023/07/13 11:33:54;;;;;;;5.97;2.10;;;;;;;31.33;23.50;98845.00;7000887;28;20204;-83
2023/07/13 11:37:18;;;;;;;2.73;1.70;;;;;;;30.84;24.74;98851.34;7003003;28;20328;-82
2023/07/13 11:40:41;;;;;;;4.67;1.40;;;;;;;30.93;24.41;98835.41;7006521;28;20258;-83
2023/07/13 11:44:08;;;;;;;2.60;1.57;;;;;;;31.36;24.30;98849.09;7001766;28;20206;-83
2023/07/13 11:47:31;;;;;;;4.40;1.80;;;;;;;30.32;24.77;98846.31;7001727;28;20228;-82
2023/07/13 11:50:57;;;;;;;6.03;1.73;;;;;;;31.77;23.32;98844.31;6995519;28;20722;-83
2023/07/13 11:54:26;;;;;;;3.77;1.70;;;;;;;32.44;22.95;98846.75;7000888;28;20286;-83
2023/07/13 11:57:50;;;;;;;3.03;1.73;;;;;;;33.47;21.52;98847.00;7000253;28;20240;-83
2023/07/13 12:01:18;;;;;;;3.07;1.90;;;;;;;32.90;22.17;98851.94;7006929;28;20236;-83
2023/07/13 12:04:39;;;;;;;3.03;1.70;;;;;;;33.26;21.73;98843.53;7003764;28;20195;-83
2023/07/13 12:08:11;;;;;;;4.50;1.90;;;;;;;32.30;22.56;98830.34;7015932;28;20302;-85
2023/07/13 12:11:37;;;;;;;6.17;1.80;;;;;;;32.16;22.75;98846.56;7018724;28;20695;-85
2023/07/13 12:14:58;;;;;;;2.80;1.77;;;;;;;31.89;22.94;98841.56;7003195;28;20233;-81
2023/07/13 12:18:21;;;;;;;2.67;1.80;;;;;;;32.70;22.53;98836.06;6999937;28;20375;-81
2023/07/13 12:21:43;;;;;;;3.10;1.67;;;;;;;32.09;22.87;98837.94;7000806;28;20297;-86
2023/07/13 12:25:07;;;;;;;4.93;1.70;;;;;;;31.81;22.58;98841.66;6999525;28;20215;-83
2023/07/13 12:28:34;;;;;;;8.43;1.90;;;;;;;31.36;22.69;98846.28;7000065;28;20698;-82
2023/07/13 12:31:56;;;;;;;3.53;1.73;;;;;;;30.87;23.72;98845.09;7002872;28;20217;-83
2023/07/13 12:35:18;;;;;;;2.63;1.77;;;;;;;32.07;22.65;98842.22;7000570;28;20597;-83
2023/07/13 12:38:40;;;;;;;5.47;1.70;;;;;;;32.34;22.77;98831.28;6999236;28;20346;-82
2023/07/13 12:42:19;;;;;;;5.40;1.60;;;;;;;32.15;22.76;98842.16;7007603;28;20206;-83
2023/07/13 12:45:55;;;;;;;5.03;1.50;;;;;;;32.42;22.65;98849.91;7004530;28;20718;-83
2023/07/13 12:49:17;;;;;;;2.20;1.33;;;;;;;32.58;22.06;98827.69;7003202;28;20331;-82
2023/07/13 12:52:40;;;;;;;3.67;1.90;;;;;;;32.13;22.98;98824.13;7010359;28;20213;-83
2023/07/13 12:56:04;;;;;;;3.43;1.77;;;;;;;31.67;23.28;98830.75;7013677;28;20230;-81
2023/07/13 12:59:32;;;;;;;4.27;1.70;;;;;;;31.57;22.82;98838.72;7009259;28;20225;-84
2023/07/13 13:02:56;;;;;;;4.97;1.83;;;;;;;31.33;24.09;98842.22;7007185;28;20218;-83
2023/07/13 13:06:24;;;;;;;5.50;1.77;;;;;;;31.01;23.17;98817.81;6998341;28;20209;-83
2023/07/13 13:09:47;;;;;;;4.60;2.07;;;;;;;30.72;23.53;98836.50;7013267;28;20221;-83
2023/07/13 13:13:09;;;;;;;3.13;1.57;;;;;;;31.21;22.99;98816.25;7004611;28;20242;-84
2023/07/13 13:16:34;;;;;;;1.83;1.47;;;;;;;32.12;22.15;98830.81;6997963;28;20632;-83
2023/07/13 13:19:57;;;;;;;4.13;1.80;;;;;;;32.90;22.43;98830.41;7000309;28;20230;-83
2023/07/13 13:23:22;;;;;;;2.03;1.40;;;;;;;31.93;22.51;98827.75;7001481;28;20220;-84
2023/07/13 13:26:45;;;;;;;4.13;1.73;;;;;;;32.40;22.45;98826.28;6999149;28;20655;-84
2023/07/13 13:30:13;;;;;;;2.77;1.70;;;;;;;32.52;21.38;98831.88;7001244;28;20693;-84
2023/07/13 13:33:36;;;;;;;4.23;1.80;;;;;;;31.32;22.39;98826.63;6999396;28;20555;-83
2023/07/13 13:36:58;;;;;;;2.13;1.70;;;;;;;31.82;22.09;98832.13;6998797;28;20227;-84
2023/07/13 13:40:22;;;;;;;4.27;1.80;;;;;;;32.69;20.80;98835.28;6999017;28;20313;-82
2023/07/13 13:43:45;;;;;;;2.53;1.67;;;;;;;33.24;20.08;98817.88;7000381;28;20373;-83
2023/07/13 13:47:21;;;;;;;4.23;2.17;;;;;;;31.73;22.01;98818.28;6997991;28;20213;-83
2023/07/13 13:50:44;;;;;;;3.77;1.97;;;;;;;30.79;21.74;98793.03;6997723;28;20273;-82
2023/07/13 13:54:06;;;;;;;3.13;1.70;;;;;;;30.88;21.99;98818.06;7003187;28;20225;-83
2023/07/13 13:57:29;;;;;;;5.80;1.90;;;;;;;30.93;23.16;98803.94;7000831;28;20710;-83
2023/07/13 14:00:50;;;;;;;4.50;1.83;;;;;;;30.86;22.53;98748.81;7010258;28;20281;-83
2023/07/13 14:04:17;;;;;;;1.77;1.67;;;;;;;31.65;21.85;98813.56;7012525;28;20206;-84
2023/07/13 14:07:40;;;;;;;3.43;1.70;;;;;;;31.31;21.87;98805.50;7017042;28;20231;-82
2023/07/13 14:11:01;;;;;;;2.87;1.90;;;;;;;32.02;21.22;98787.44;7021707;28;20203;-83
2023/07/13 14:14:25;;;;;;;2.20;1.43;;;;;;;32.13;21.65;98785.84;7018177;28;20328;-82
2023/07/13 14:17:49;;;;;;;4.60;1.80;;;;;;;32.01;21.59;98776.66;6970399;28;20713;-83
2023/07/13 14:21:14;;;;;;;2.37;1.83;;;;;;;32.47;20.88;98795.81;6997734;28;20278;-89
2023/07/13 14:24:37;;;;;;;3.53;1.47;;;;;;;32.33;20.24;98798.13;7000481;28;20210;-82
2023/07/13 14:28:00;;;;;;;2.73;1.57;;;;;;;31.87;20.70;98807.66;6986480;28;20237;-82
2023/07/13 14:31:23;;;;;;;3.70;1.60;;;;;;;31.58;21.35;98810.53;6973110;28;20202;-83
2023/07/13 14:34:45;;;;;;;2.20;1.63;;;;;;;31.32;21.64;98803.53;6977325;28;20367;-83
2023/07/13 14:38:11;;;;;;;4.13;1.83;;;;;;;31.78;21.83;98809.69;6979882;28;20222;-82
2023/07/13 14:41:34;;;;;;;2.03;1.60;;;;;;;31.97;21.48;98818.34;6978366;28;20195;-81
2023/07/13 14:44:55;;;;;;;5.87;2.07;;;;;;;32.08;21.12;98811.19;7003721;28;20202;-82
2023/07/13 14:48:18;;;;;;;2.33;1.63;;;;;;;32.32;21.10;98819.63;6999815;28;20731;-82
2023/07/13 14:51:40;;;;;;;2.53;1.70;;;;;;;31.67;21.14;98816.81;7003509;28;20258;-82
2023/07/13 14:55:01;;;;;;;2.57;1.70;;;;;;;31.19;21.72;98763.63;7022692;28;20215;-81
2023/07/13 14:58:24;;;;;;;2.13;1.63;;;;;;;31.39;22.28;98820.53;7002282;28;20777;-81
2023/07/13 15:01:46;;;;;;;3.80;1.77;;;;;;;32.03;21.82;98821.75;7003616;28;20213;-83
2023/07/13 15:05:14;;;;;;;2.10;1.40;;;;;;;30.93;21.94;98782.50;7004551;28;20212;-81
2023/07/13 15:08:35;;;;;;;4.73;1.90;;;;;;;31.36;21.82;98816.44;6985548;28;20313;-81
2023/07/13 15:11:58;;;;;;;3.50;1.73;;;;;;;31.33;21.75;98817.13;7004544;28;20339;-82
2023/07/13 15:15:21;;;;;;;4.13;1.73;;;;;;;31.55;21.27;98813.19;7007230;28;20232;-82
2023/07/13 15:18:42;;;;;;;1.93;1.70;;;;;;;31.21;22.24;98803.13;7009698;28;20319;-82
2023/07/13 15:22:05;;;;;;;4.60;1.77;;;;;;;31.21;22.00;98803.13;7010411;28;20228;-82
2023/07/13 15:25:30;;;;;;;4.77;1.90;;;;;;;31.04;22.70;98806.00;7003826;28;20271;-82
2023/07/13 15:28:51;;;;;;;3.27;1.80;;;;;;;31.96;21.18;98805.56;7011166;28;20222;-82
2023/07/13 15:32:15;;;;;;;2.23;1.53;;;;;;;31.57;21.65;98806.09;7013741;28;20204;-82
2023/07/13 15:35:36;;;;;;;4.83;1.67;;;;;;;31.55;22.16;98813.19;7011589;28;20200;-81
2023/07/13 15:38:58;;;;;;;3.93;1.80;;;;;;;31.31;22.29;98772.06;7009775;28;20276;-81
2023/07/13 15:42:21;;;;;;;3.37;1.80;;;;;;;31.44;22.64;98826.69;7014277;28;20284;-82
2023/07/13 15:45:45;;;;;;;9.03;1.50;;;;;;;31.24;22.48;98798.84;7013669;28;20229;-82
2023/07/13 15:49:10;;;;;;;4.17;1.87;;;;;;;31.45;22.14;98816.38;7012854;28;20287;-81
2023/07/13 15:52:32;;;;;;;5.20;1.63;;;;;;;31.13;22.62;98809.53;7010533;28;20201;-83
2023/07/13 15:55:54;;;;;;;4.17;1.90;;;;;;;31.56;22.04;98810.06;6994997;28;20312;-82
2023/07/13 15:59:15;;;;;;;2.73;1.70;;;;;;;31.53;21.95;98807.09;6996538;28;20232;-82